Time;durP1;ratioP1;P1;durP2;ratioP2;P2;SDS_P1;SDS_P2;PMS_P1;PMS_P2;Temp;Humidity;BMP_temperature;BMP_pressure;BME280_temperature;BME280_humidity;BME280_pressure;Samples;Min_cycle;Max_cycle;Signal;HPM_P1;HPM_P2
2023/05/28 00:01:08;;;;;;;0.90;0.60;;;17.90;57.10;;;;;;5013954;28;20225;-55
2023/05/28 00:03:41;;;;;;;2.00;0.70;;;17.90;57.10;;;;;;5012712;28;20196;-56
2023/05/28 00:06:13;;;;;;;1.98;0.68;;;17.90;57.10;;;;;;5014296;28;20235;-55
2023/05/28 00:08:45;;;;;;;0.80;0.73;;;18.00;57.10;;;;;;5013131;28;20189;-57
2023/05/28 00:11:16;;;;;;;0.70;0.60;;;18.00;57.10;;;;;;5013797;28;20228;-56
2023/05/28 00:13:46;;;;;;;1.05;0.70;;;18.00;57.10;;;;;;5012430;28;20207;-58
2023/05/28 00:16:17;;;;;;;1.33;0.73;;;18.00;57.00;;;;;;5013758;28;20205;-58
2023/05/28 00:18:48;;;;;;;0.70;0.65;;;18.00;57.00;;;;;;5012626;28;20192;-53
2023/05/28 00:21:19;;;;;;;1.63;0.90;;;18.10;57.10;;;;;;5011981;28;20279;-54
2023/05/28 00:23:51;;;;;;;1.00;0.60;;;18.10;57.10;;;;;;5012866;28;20216;-58
2023/05/28 00:26:22;;;;;;;1.35;0.90;;;18.10;57.40;;;;;;5013117;28;20197;-54
2023/05/28 00:28:52;;;;;;;1.00;0.90;;;18.10;57.10;;;;;;5013459;28;20197;-57
2023/05/28 00:31:23;;;;;;;1.00;0.70;;;18.20;57.10;;;;;;5012636;28;20212;-57
2023/05/28 00:33:54;;;;;;;0.80;0.60;;;18.20;57.10;;;;;;5012966;28;20193;-56
2023/05/28 00:36:24;;;;;;;2.47;0.80;;;18.20;57.10;;;;;;5012646;28;20205;-55
2023/05/28 00:38:57;;;;;;;2.63;0.88;;;18.30;57.10;;;;;;5013407;28;20197;-56
2023/05/28 00:41:29;;;;;;;0.60;0.60;;;18.30;57.00;;;;;;5012158;28;20212;-55
2023/05/28 00:44:00;;;;;;;1.45;0.68;;;18.30;57.00;;;;;;5012709;28;20185;-56
2023/05/28 00:46:31;;;;;;;0.70;0.60;;;18.30;57.00;;;;;;5013145;28;20215;-56
2023/05/28 00:49:01;;;;;;;0.93;0.60;;;18.40;57.10;;;;;;5012111;28;20560;-56
2023/05/28 00:51:33;;;;;;;0.77;0.75;;;18.40;57.00;;;;;;5012798;28;20239;-56
2023/05/28 00:54:06;;;;;;;1.13;0.70;;;18.40;57.00;;;;;;5011918;28;20228;-57
2023/05/28 00:56:37;;;;;;;0.90;0.60;;;18.50;57.00;;;;;;5013242;28;20204;-55
2023/05/28 00:59:08;;;;;;;1.00;0.88;;;18.50;56.90;;;;;;5012342;28;20200;-57
2023/05/28 01:01:39;;;;;;;1.45;0.77;;;18.50;56.90;;;;;;5011647;28;20692;-54
2023/05/28 01:04:09;;;;;;;1.20;0.77;;;18.50;56.90;;;;;;5012271;28;20648;-57
2023/05/28 01:06:40;;;;;;;0.45;0.45;;;18.60;57.00;;;;;;5012815;28;20561;-57
2023/05/28 01:09:13;;;;;;;0.90;0.60;;;18.60;56.90;;;;;;5011920;28;20201;-54
2023/05/28 01:11:46;;;;;;;0.82;0.60;;;18.60;56.90;;;;;;4992239;28;20230;-56
2023/05/28 01:14:17;;;;;;;0.60;0.60;;;18.70;56.90;;;;;;5010618;28;20189;-55
2023/05/28 01:16:48;;;;;;;1.20;0.60;;;18.70;56.90;;;;;;5011908;28;20688;-51
2023/05/28 01:19:21;;;;;;;0.70;0.60;;;18.70;56.90;;;;;;5011925;28;20232;-57
2023/05/28 01:21:58;;;;;;;1.70;0.70;;;18.70;56.90;;;;;;5011770;28;20279;-56
2023/05/28 01:24:31;;;;;;;1.75;0.75;;;18.70;56.90;;;;;;5012370;28;20193;-55
2023/05/28 01:27:02;;;;;;;2.35;0.57;;;18.80;56.40;;;;;;5011633;28;20213;-52
2023/05/28 01:29:32;;;;;;;0.95;0.60;;;18.80;55.30;;;;;;5011425;28;20197;-57
2023/05/28 01:32:03;;;;;;;0.47;0.32;;;18.90;54.70;;;;;;5011944;28;20217;-55
2023/05/28 01:34:34;;;;;;;0.60;0.38;;;19.00;54.20;;;;;;5011316;28;20201;-54
2023/05/28 01:37:09;;;;;;;1.27;0.68;;;19.00;53.80;;;;;;5012341;28;20571;-56
2023/05/28 01:39:44;;;;;;;0.93;0.50;;;19.00;53.50;;;;;;5011631;28;20200;-49
2023/05/28 01:42:16;;;;;;;0.75;0.40;;;19.20;53.30;;;;;;5010947;28;20220;-54
2023/05/28 01:44:48;;;;;;;0.93;0.40;;;19.20;53.00;;;;;;5011213;28;20874;-50
2023/05/28 01:47:19;;;;;;;0.30;0.30;;;19.30;53.50;;;;;;5011234;28;20201;-54
2023/05/28 01:49:50;;;;;;;0.70;0.30;;;19.40;52.80;;;;;;5009805;28;20711;-55
2023/05/28 01:52:21;;;;;;;1.48;0.40;;;19.50;52.80;;;;;;5011940;28;20240;-59
2023/05/28 01:54:53;;;;;;;1.20;0.40;;;19.60;52.70;;;;;;4991386;28;20205;-57
2023/05/28 01:57:24;;;;;;;1.02;0.40;;;19.70;52.70;;;;;;4991908;28;20241;-55
2023/05/28 01:59:54;;;;;;;2.88;0.57;;;19.80;52.60;;;;;;4991537;28;20205;-55
2023/05/28 02:02:27;;;;;;;1.67;0.50;;;19.90;52.80;;;;;;5010459;28;20231;-58
2023/05/28 02:04:58;;;;;;;1.05;0.40;;;19.90;52.80;;;;;;5011755;28;20281;-58
2023/05/28 02:07:29;;;;;;;2.70;0.70;;;20.10;52.80;;;;;;5011957;28;20209;-57
2023/05/28 02:10:01;;;;;;;1.27;0.50;;;20.10;52.60;;;;;;5010868;28;20216;-59
2023/05/28 02:12:32;;;;;;;0.90;0.47;;;20.20;52.50;;;;;;5011585;28;20227;-55
2023/05/28 02:15:02;;;;;;;0.55;0.40;;;20.30;52.40;;;;;;4991822;28;20205;-58
2023/05/28 02:17:33;;;;;;;1.58;0.60;;;20.40;52.20;;;;;;5010993;28;20208;-55
2023/05/28 02:20:04;;;;;;;2.08;0.70;;;20.50;52.20;;;;;;4991658;28;20217;-58
2023/05/28 02:22:36;;;;;;;1.50;0.40;;;20.60;52.00;;;;;;4991389;28;20648;-58
2023/05/28 02:25:12;;;;;;;0.88;0.50;;;20.70;51.90;;;;;;4991139;28;20197;-58
2023/05/28 02:27:43;;;;;;;1.27;0.45;;;20.70;51.50;;;;;;4991248;28;20205;-58
2023/05/28 02:30:16;;;;;;;1.00;0.50;;;20.80;51.30;;;;;;5010585;28;20731;-58
2023/05/28 02:32:52;;;;;;;1.27;0.20;;;20.80;51.10;;;;;;5010970;28;20707;-56
2023/05/28 02:35:23;;;;;;;0.47;0.30;;;20.90;51.00;;;;;;5010468;28;20612;-58
2023/05/28 02:37:54;;;;;;;1.17;0.32;;;20.90;50.90;;;;;;5011507;28;20568;-58
2023/05/28 02:40:26;;;;;;;1.00;0.65;;;21.00;50.80;;;;;;5010761;28;20200;-58
2023/05/28 02:42:57;;;;;;;1.05;0.45;;;21.00;50.70;;;;;;5010923;28;20217;-58
2023/05/28 02:45:28;;;;;;;3.03;0.70;;;21.10;50.80;;;;;;5010110;28;20203;-59
2023/05/28 02:47:58;;;;;;;1.67;0.40;;;21.10;50.70;;;;;;5010494;28;20200;-57
2023/05/28 02:50:29;;;;;;;1.88;0.70;;;21.20;50.70;;;;;;5015952;28;20274;-59
2023/05/28 02:53:00;;;;;;;0.85;0.50;;;21.20;50.80;;;;;;5027189;28;20667;-59
2023/05/28 02:55:32;;;;;;;2.63;0.70;;;21.20;51.10;;;;;;5022420;28;20272;-59
2023/05/28 02:58:03;;;;;;;1.15;0.30;;;21.20;51.20;;;;;;5027915;28;20529;-59
2023/05/28 03:00:33;;;;;;;1.02;0.40;;;21.30;51.40;;;;;;5029749;28;20555;-59
2023/05/28 03:03:04;;;;;;;1.75;0.47;;;21.30;51.50;;;;;;5028207;28;20196;-59
2023/05/28 03:05:35;;;;;;;0.60;0.40;;;21.30;51.60;;;;;;5029426;28;20193;-60
2023/05/28 03:08:05;;;;;;;1.30;0.50;;;21.30;51.70;;;;;;5024643;28;20188;-59
2023/05/28 03:10:38;;;;;;;2.28;0.60;;;21.30;51.80;;;;;;5024759;28;20281;-59
2023/05/28 03:13:08;;;;;;;0.75;0.40;;;21.30;51.90;;;;;;5025036;28;20185;-59
2023/05/28 03:15:39;;;;;;;1.45;0.40;;;21.40;52.10;;;;;;5029123;28;20189;-59
2023/05/28 03:18:10;;;;;;;1.13;0.45;;;21.40;52.10;;;;;;5021251;28;20200;-59
2023/05/28 03:20:41;;;;;;;1.23;0.60;;;21.40;52.20;;;;;;5028910;28;20211;-59
2023/05/28 03:23:13;;;;;;;1.42;0.40;;;21.40;52.30;;;;;;5029354;28;20595;-58
2023/05/28 03:25:46;;;;;;;1.00;0.50;;;21.40;52.40;;;;;;5029600;28;20200;-59
2023/05/28 03:28:17;;;;;;;2.00;0.40;;;21.40;52.40;;;;;;5029367;28;20192;-59
2023/05/28 03:30:47;;;;;;;0.50;0.50;;;21.40;52.40;;;;;;5025115;28;20234;-57
2023/05/28 03:33:18;;;;;;;0.50;0.30;;;21.40;52.40;;;;;;5025183;28;20208;-59
2023/05/28 03:35:49;;;;;;;0.68;0.47;;;21.40;52.50;;;;;;5025032;28;20203;-57
2023/05/28 03:38:19;;;;;;;0.77;0.40;;;21.40;52.50;;;;;;5029835;28;20200;-58
2023/05/28 03:40:52;;;;;;;1.10;0.60;;;21.40;52.60;;;;;;5020813;28;20207;-57
2023/05/28 03:43:22;;;;;;;0.90;0.43;;;21.40;52.70;;;;;;5029263;28;20267;-56
2023/05/28 03:45:53;;;;;;;0.40;0.38;;;21.40;52.80;;;;;;5029017;28;20196;-59
2023/05/28 03:48:24;;;;;;;1.13;0.40;;;21.40;52.80;;;;;;5026666;28;20185;-58
2023/05/28 03:50:54;;;;;;;0.77;0.50;;;21.40;52.80;;;;;;5028945;28;20228;-60
2023/05/28 03:53:25;;;;;;;0.70;0.55;;;21.50;52.90;;;;;;5026403;28;20207;-59
2023/05/28 03:55:58;;;;;;;1.13;0.40;;;21.50;52.90;;;;;;5031973;28;20200;-59
2023/05/28 03:58:29;;;;;;;1.00;0.50;;;21.40;53.00;;;;;;5027620;28;20199;-59
2023/05/28 04:00:59;;;;;;;1.58;0.50;;;21.50;53.10;;;;;;5032833;28;20220;-59
2023/05/28 04:03:30;;;;;;;0.77;0.50;;;21.50;53.10;;;;;;5028454;28;20199;-58
2023/05/28 04:06:02;;;;;;;1.00;0.60;;;21.50;53.10;;;;;;5033041;28;20200;-59
2023/05/28 04:08:33;;;;;;;1.60;0.55;;;21.50;53.10;;;;;;5032779;28;20690;-59
2023/05/28 04:11:06;;;;;;;1.60;0.40;;;21.50;53.10;;;;;;5032516;28;20235;-59
2023/05/28 04:13:37;;;;;;;0.50;0.40;;;21.50;53.10;;;;;;5033482;28;20275;-59
2023/05/28 04:16:09;;;;;;;0.55;0.43;;;21.50;53.10;;;;;;5021819;28;20688;-58
2023/05/28 04:18:40;;;;;;;1.83;0.40;;;21.50;53.10;;;;;;5013621;28;20197;-57
2023/05/28 04:21:11;;;;;;;0.40;0.40;;;21.50;53.20;;;;;;5013449;28;20248;-55
2023/05/28 04:23:42;;;;;;;0.47;0.40;;;21.50;53.20;;;;;;5013758;28;20291;-53
2023/05/28 04:26:14;;;;;;;0.40;0.40;;;21.50;53.30;;;;;;5013419;28;20197;-57
2023/05/28 04:28:46;;;;;;;0.75;0.40;;;21.60;53.30;;;;;;5013789;28;20204;-57
2023/05/28 04:31:17;;;;;;;1.33;0.40;;;21.60;53.40;;;;;;5013718;28;20229;-52
2023/05/28 04:33:51;;;;;;;1.75;0.40;;;21.60;53.40;;;;;;5014981;28;20208;-58
2023/05/28 04:36:28;;;;;;;1.13;0.52;;;21.60;53.50;;;;;;5032160;28;20718;-58
2023/05/28 04:39:00;;;;;;;0.50;0.47;;;21.60;53.50;;;;;;5031939;28;20196;-58
2023/05/28 04:41:33;;;;;;;0.70;0.40;;;21.60;53.50;;;;;;5026770;28;21020;-58
2023/05/28 04:44:04;;;;;;;0.80;0.50;;;21.60;53.50;;;;;;5032020;28;20730;-58
2023/05/28 04:46:36;;;;;;;1.75;0.50;;;21.60;53.50;;;;;;5031571;28;20664;-56
2023/05/28 04:49:07;;;;;;;3.67;0.80;;;21.60;53.40;;;;;;5027884;28;20250;-57
2023/05/28 04:51:38;;;;;;;1.52;0.60;;;21.60;53.20;;;;;;5031214;28;20243;-59
2023/05/28 04:54:08;;;;;;;1.77;0.90;;;21.60;53.20;;;;;;5013318;28;20673;-59
2023/05/28 04:56:41;;;;;;;0.60;0.40;;;21.60;53.10;;;;;;5027272;28;20608;-59
2023/05/28 04:59:12;;;;;;;1.45;0.60;;;21.60;53.20;;;;;;5031822;28;20196;-59
2023/05/28 05:01:42;;;;;;;2.17;0.80;;;21.60;53.90;;;;;;5027705;28;20208;-58
2023/05/28 05:04:13;;;;;;;1.15;0.70;;;21.60;53.30;;;;;;5031518;28;20200;-60
2023/05/28 05:06:44;;;;;;;1.17;0.40;;;21.60;53.40;;;;;;5030890;28;20196;-59
2023/05/28 05:09:15;;;;;;;1.13;0.57;;;21.60;53.40;;;;;;5031199;28;20192;-59
2023/05/28 05:11:47;;;;;;;1.00;0.80;;;21.60;53.40;;;;;;5030268;28;20232;-59
2023/05/28 05:14:18;;;;;;;1.98;0.70;;;21.60;53.40;;;;;;5021659;28;20215;-58
2023/05/28 05:16:48;;;;;;;1.10;0.45;;;21.60;53.50;;;;;;5029490;28;20200;-59
2023/05/28 05:19:19;;;;;;;0.95;0.57;;;21.60;53.40;;;;;;5027019;28;20194;-59
2023/05/28 05:21:50;;;;;;;0.63;0.50;;;21.50;53.30;;;;;;5030470;28;20247;-60
2023/05/28 05:24:20;;;;;;;0.80;0.50;;;21.50;53.30;;;;;;5031014;28;20188;-60
2023/05/28 05:26:53;;;;;;;1.15;0.85;;;21.50;53.30;;;;;;5030418;28;20711;-59
2023/05/28 05:29:24;;;;;;;2.25;0.73;;;21.50;53.30;;;;;;5030749;28;20195;-60
2023/05/28 05:31:54;;;;;;;1.10;0.60;;;21.50;53.30;;;;;;5030276;28;20254;-59
2023/05/28 05:34:25;;;;;;;0.98;0.55;;;21.50;53.90;;;;;;5026585;28;20184;-59
2023/05/28 05:36:55;;;;;;;0.80;0.60;;;21.50;53.40;;;;;;5030751;28;20197;-59
2023/05/28 05:39:26;;;;;;;1.30;0.65;;;21.40;53.40;;;;;;5031996;28;20204;-58
2023/05/28 05:41:59;;;;;;;2.92;0.75;;;21.40;53.40;;;;;;5011876;28;20271;-59
2023/05/28 05:44:30;;;;;;;1.02;0.85;;;21.40;53.40;;;;;;5011919;28;20288;-59
2023/05/28 05:47:01;;;;;;;1.23;0.90;;;21.40;53.40;;;;;;5011193;28;20606;-58
2023/05/28 05:49:31;;;;;;;1.02;0.80;;;21.40;53.40;;;;;;5012389;28;20201;-58
2023/05/28 05:52:02;;;;;;;1.65;0.90;;;21.40;53.40;;;;;;5011394;28;20247;-58
2023/05/28 05:54:32;;;;;;;1.10;0.90;;;21.40;53.40;;;;;;5009296;28;20645;-58
2023/05/28 05:57:05;;;;;;;1.63;1.05;;;21.30;53.40;;;;;;5011432;28;20811;-57
2023/05/28 05:59:36;;;;;;;2.28;0.98;;;21.30;53.40;;;;;;5011273;28;20185;-58
2023/05/28 06:02:07;;;;;;;1.15;0.90;;;21.30;53.50;;;;;;5012096;28;20216;-58
2023/05/28 06:04:38;;;;;;;1.52;1.05;;;21.30;53.50;;;;;;5011440;28;20285;-57
2023/05/28 06:07:08;;;;;;;1.08;0.95;;;21.30;53.50;;;;;;5012201;28;20200;-58
2023/05/28 06:09:39;;;;;;;1.10;1.00;;;21.20;53.50;;;;;;5010791;28;20221;-58
2023/05/28 06:12:12;;;;;;;1.48;0.95;;;21.20;53.50;;;;;;5010590;28;20232;-57
2023/05/28 06:14:43;;;;;;;2.65;1.27;;;21.20;53.50;;;;;;5011481;28;20200;-58
2023/05/28 06:17:14;;;;;;;2.25;1.33;;;21.20;53.50;;;;;;5011218;28;20193;-58
2023/05/28 06:19:44;;;;;;;1.75;1.20;;;21.10;53.40;;;;;;5010355;28;20205;-55
2023/05/28 06:22:15;;;;;;;1.95;1.20;;;21.10;53.50;;;;;;5010602;28;20231;-58
2023/05/28 06:24:46;;;;;;;1.80;1.50;;;21.10;53.50;;;;;;5010350;28;20204;-57
2023/05/28 06:27:19;;;;;;;1.60;1.23;;;21.10;53.50;;;;;;5009963;28;20203;-58
2023/05/28 06:29:49;;;;;;;1.75;1.65;;;21.10;53.50;;;;;;5010630;28;20200;-59
2023/05/28 06:32:20;;;;;;;1.40;1.30;;;21.00;53.50;;;;;;5009669;28;20263;-57
2023/05/28 06:34:51;;;;;;;3.13;1.85;;;21.00;53.50;;;;;;5010211;28;20200;-58
2023/05/28 06:37:21;;;;;;;1.85;1.70;;;21.00;53.50;;;;;;5010262;28;20196;-57
2023/05/28 06:39:52;;;;;;;2.53;1.67;;;21.00;53.60;;;;;;5010292;28;20589;-58
2023/05/28 06:42:24;;;;;;;2.33;2.00;;;21.00;53.60;;;;;;5010325;28;20212;-58
2023/05/28 06:44:55;;;;;;;2.47;2.03;;;21.00;53.50;;;;;;5010615;28;20673;-58
2023/05/28 06:47:26;;;;;;;3.00;1.90;;;20.90;53.50;;;;;;5011216;28;20201;-57
2023/05/28 06:49:57;;;;;;;3.33;2.45;;;20.90;53.50;;;;;;5010436;28;20201;-58
2023/05/28 06:52:28;;;;;;;2.72;2.33;;;20.90;53.50;;;;;;5010096;28;20232;-58
2023/05/28 06:54:58;;;;;;;3.47;2.22;;;20.90;53.60;;;;;;5009524;28;20208;-58
2023/05/28 06:57:31;;;;;;;2.58;1.80;;;20.90;53.50;;;;;;5010868;28;20192;-58
2023/05/28 07:00:02;;;;;;;3.58;2.17;;;20.80;53.50;;;;;;5011227;28;20197;-59
2023/05/28 07:02:32;;;;;;;3.33;2.20;;;20.80;53.50;;;;;;5009457;28;20211;-59
2023/05/28 07:05:04;;;;;;;2.40;2.10;;;20.80;53.50;;;;;;5010897;28;20537;-58
2023/05/28 07:07:35;;;;;;;3.15;2.13;;;20.70;53.50;;;;;;5010716;28;20196;-59
2023/05/28 07:10:06;;;;;;;4.28;2.03;;;20.70;53.50;;;;;;5010244;28;20192;-58
2023/05/28 07:12:39;;;;;;;2.33;2.10;;;20.70;53.60;;;;;;5010262;28;20231;-58
2023/05/28 07:15:10;;;;;;;3.10;2.25;;;20.70;53.60;;;;;;5010778;28;20208;-58
2023/05/28 07:17:41;;;;;;;3.97;2.15;;;20.70;53.60;;;;;;5009210;28;20189;-58
2023/05/28 07:20:13;;;;;;;2.40;2.20;;;20.70;53.60;;;;;;5009584;28;20211;-58
2023/05/28 07:22:44;;;;;;;2.83;2.10;;;20.70;53.70;;;;;;5010076;28;20216;-56
2023/05/28 07:25:14;;;;;;;4.45;2.83;;;20.60;53.70;;;;;;4999289;28;20201;-57
2023/05/28 07:27:47;;;;;;;2.90;2.03;;;20.60;53.60;;;;;;5011032;28;20201;-57
2023/05/28 07:30:19;;;;;;;2.60;1.98;;;20.60;53.60;;;;;;5012485;28;20196;-58
2023/05/28 07:32:50;;;;;;;2.67;1.90;;;20.60;53.70;;;;;;5014209;28;20536;-58
2023/05/28 07:35:20;;;;;;;3.17;2.33;;;20.60;53.70;;;;;;5012349;28;20203;-57
2023/05/28 07:37:51;;;;;;;2.20;2.00;;;20.50;53.80;;;;;;5014634;28;20204;-58
2023/05/28 07:40:22;;;;;;;3.13;2.00;;;20.50;53.80;;;;;;5013367;28;20284;-58
2023/05/28 07:42:54;;;;;;;3.78;2.10;;;20.50;53.80;;;;;;5013829;28;20221;-58
2023/05/28 07:45:25;;;;;;;2.70;2.20;;;20.40;53.70;;;;;;5013869;28;20199;-58
2023/05/28 07:47:55;;;;;;;3.17;1.80;;;20.40;53.70;;;;;;5014022;28;20201;-58
2023/05/28 07:50:26;;;;;;;2.30;2.10;;;20.40;53.70;;;;;;5014327;28;20197;-58
2023/05/28 07:52:57;;;;;;;4.43;2.03;;;20.40;53.80;;;;;;5014390;28;20250;-56
2023/05/28 07:55:28;;;;;;;6.82;4.47;;;20.40;53.80;;;;;;5013204;28;20653;-52
2023/05/28 07:58:00;;;;;;;8.75;4.35;;;20.40;53.90;;;;;;5014330;28;20197;-56
2023/05/28 08:00:31;;;;;;;3.65;2.88;;;20.40;53.90;;;;;;5014392;28;20223;-57
2023/05/28 08:03:02;;;;;;;5.13;3.00;;;20.30;53.90;;;;;;5014387;28;20278;-57
2023/05/28 08:05:32;;;;;;;4.78;3.33;;;20.30;53.90;;;;;;5014035;28;20211;-57
2023/05/28 08:08:03;;;;;;;6.28;3.50;;;20.40;53.90;;;;;;5014403;28;20254;-57
2023/05/28 08:10:34;;;;;;;5.82;3.67;;;20.30;53.90;;;;;;5013267;28;20208;-57
2023/05/28 08:13:06;;;;;;;5.43;3.00;;;20.30;53.90;;;;;;5013366;28;20228;-55
2023/05/28 08:15:37;;;;;;;4.72;3.33;;;20.30;53.90;;;;;;5013642;28;20201;-53
2023/05/28 08:18:08;;;;;;;5.72;3.25;;;20.30;53.90;;;;;;5014164;28;20197;-55
2023/05/28 08:20:39;;;;;;;7.22;3.65;;;20.20;53.90;;;;;;5013763;28;20672;-56
2023/05/28 08:23:10;;;;;;;5.45;3.75;;;20.20;53.90;;;;;;5014006;28;20196;-57
2023/05/28 08:25:41;;;;;;;4.63;3.28;;;20.20;53.90;;;;;;5013340;28;20200;-58
2023/05/28 08:28:13;;;;;;;4.63;3.72;;;20.20;53.90;;;;;;5013763;28;20200;-56
2023/05/28 08:30:44;;;;;;;5.85;3.70;;;20.20;53.90;;;;;;5013626;28;20201;-58
2023/05/28 08:33:14;;;;;;;4.40;3.50;;;20.20;54.00;;;;;;5013483;28;20228;-58
2023/05/28 08:35:45;;;;;;;5.07;3.35;;;20.10;53.90;;;;;;5008768;28;22080;-57
2023/05/28 08:38:16;;;;;;;4.88;3.67;;;20.10;54.00;;;;;;5012635;28;20195;-57
2023/05/28 08:40:51;;;;;;;4.65;3.55;;;20.10;54.00;;;;;;5011572;28;20192;-58
2023/05/28 08:43:23;;;;;;;5.05;3.17;;;20.10;54.00;;;;;;5011690;28;20199;-57
2023/05/28 08:45:55;;;;;;;5.72;3.33;;;20.10;54.00;;;;;;5012649;28;20702;-58
2023/05/28 08:48:28;;;;;;;3.85;3.28;;;20.00;54.00;;;;;;4994929;28;20198;-58
2023/05/28 08:50:59;;;;;;;5.10;3.50;;;20.00;54.00;;;;;;5011353;28;20707;-57
2023/05/28 08:53:33;;;;;;;4.45;3.00;;;20.00;54.70;;;;;;5011274;28;20692;-57
2023/05/28 08:56:05;;;;;;;4.75;3.13;;;20.00;54.10;;;;;;5011416;28;20192;-57
2023/05/28 08:58:38;;;;;;;4.80;3.30;;;19.90;54.10;;;;;;5012074;28;20204;-55
2023/05/28 09:01:09;;;;;;;5.82;3.30;;;19.90;54.10;;;;;;5012806;28;20216;-54
2023/05/28 09:03:42;;;;;;;4.50;3.50;;;20.00;54.10;;;;;;5012340;28;20200;-54
2023/05/28 09:06:16;;;;;;;4.03;3.08;;;19.90;54.10;;;;;;5011963;28;20786;-56
2023/05/28 09:08:48;;;;;;;3.33;2.90;;;19.90;54.10;;;;;;5011291;28;20569;-57
2023/05/28 09:11:21;;;;;;;6.05;3.10;;;19.90;54.60;;;;;;5011651;28;20213;-57
2023/05/28 09:13:53;;;;;;;4.32;3.28;;;19.90;54.10;;;;;;5011850;28;20236;-57
2023/05/28 09:16:24;;;;;;;2.95;2.50;;;19.80;54.10;;;;;;5011990;28;20535;-57
2023/05/28 09:19:05;;;;;;;5.47;2.92;;;19.80;54.10;;;;;;5010216;28;20200;-56
2023/05/28 09:21:36;;;;;;;4.85;2.90;;;19.80;54.10;;;;;;5011188;28;20200;-56
2023/05/28 09:24:07;;;;;;;3.42;2.88;;;19.80;54.10;;;;;;5012430;28;20232;-56
2023/05/28 09:26:38;;;;;;;3.75;2.85;;;19.80;54.10;;;;;;5011884;28;20255;-57
2023/05/28 09:29:17;;;;;;;3.67;2.70;;;19.70;54.10;;;;;;5011100;28;20201;-55
2023/05/28 09:31:56;;;;;;;3.85;2.97;;;19.70;54.20;;;;;;5010823;28;20213;-55
2023/05/28 09:34:29;;;;;;;3.83;2.92;;;19.70;54.20;;;;;;5011385;28;20593;-57
2023/05/28 09:37:03;;;;;;;3.95;2.90;;;19.70;54.20;;;;;;5010222;28;20197;-56
2023/05/28 09:39:35;;;;;;;3.67;2.97;;;19.70;54.10;;;;;;5010536;28;20185;-54
2023/05/28 09:42:09;;;;;;;4.43;2.75;;;19.60;54.10;;;;;;5011267;28;20258;-56
2023/05/28 09:44:42;;;;;;;3.42;2.70;;;19.60;54.50;;;;;;5011785;28;20208;-55
2023/05/28 09:47:21;;;;;;;4.30;2.78;;;19.60;54.20;;;;;;5011709;28;20279;-56
2023/05/28 09:49:52;;;;;;;5.68;3.20;;;19.60;54.20;;;;;;5010385;28;20223;-57
2023/05/28 09:52:23;;;;;;;3.45;2.47;;;19.60;54.20;;;;;;5011162;28;20620;-56
2023/05/28 09:54:55;;;;;;;3.60;2.63;;;19.50;54.10;;;;;;5011162;28;20569;-55
2023/05/28 09:57:29;;;;;;;4.18;2.35;;;19.50;54.20;;;;;;5010804;28;20276;-55
2023/05/28 10:00:19;;;;;;;2.67;2.10;;;19.50;54.20;;;;;;5010858;28;20605;-55
2023/05/28 10:02:58;;;;;;;3.40;2.40;;;19.50;54.90;;;;;;5011310;28;20227;-56
2023/05/28 10:05:33;;;;;;;4.53;2.40;;;19.50;54.20;;;;;;5010913;28;20192;-54
2023/05/28 10:08:04;;;;;;;3.58;2.63;;;19.50;54.30;;;;;;5009889;28;20565;-57
2023/05/28 10:10:36;;;;;;;5.15;2.97;;;19.40;54.30;;;;;;5011220;28;20283;-57
2023/05/28 10:13:07;;;;;;;3.28;2.40;;;19.40;54.30;;;;;;5010212;28;20221;-55
2023/05/28 10:15:41;;;;;;;4.07;2.90;;;19.40;54.30;;;;;;5011134;28;20693;-54
2023/05/28 10:18:14;;;;;;;3.42;2.45;;;19.40;54.30;;;;;;5011347;28;20205;-55
2023/05/28 10:20:44;;;;;;;3.05;2.42;;;19.40;54.40;;;;;;5018083;28;20204;-58
2023/05/28 10:23:16;;;;;;;2.83;2.40;;;19.30;54.30;;;;;;5030146;28;20280;-59
2023/05/28 10:25:47;;;;;;;3.45;2.38;;;19.30;54.30;;;;;;5026745;28;20238;-58
2023/05/28 10:28:19;;;;;;;4.72;2.40;;;19.40;55.00;;;;;;5025363;28;20188;-58
2023/05/28 10:31:04;;;;;;;3.72;2.63;;;19.30;54.30;;;;;;5030016;28;21568;-58
2023/05/28 10:33:39;;;;;;;3.65;2.58;;;19.30;54.40;;;;;;5030055;28;20251;-59
2023/05/28 10:36:13;;;;;;;4.18;2.33;;;19.30;54.40;;;;;;5029920;28;20199;-59
2023/05/28 10:38:48;;;;;;;2.88;2.28;;;19.30;54.40;;;;;;5026553;28;20731;-58
2023/05/28 10:41:25;;;;;;;3.17;1.95;;;19.30;54.40;;;;;;5025295;28;20212;-58
2023/05/28 10:43:56;;;;;;;3.83;2.00;;;19.20;54.30;;;;;;5024691;28;20299;-58
2023/05/28 10:46:39;;;;;;;3.40;2.40;;;19.20;54.40;;;;;;5028250;28;20192;-57
2023/05/28 10:49:18;;;;;;;3.08;2.33;;;19.20;54.40;;;;;;5024196;28;20850;-58
2023/05/28 10:52:03;;;;;;;3.65;2.67;;;19.20;54.40;;;;;;5029957;28;20600;-58
2023/05/28 10:54:45;;;;;;;2.42;2.13;;;19.10;54.40;;;;;;5028508;28;20243;-58
2023/05/28 10:57:17;;;;;;;3.10;1.98;;;19.20;54.40;;;;;;5017880;28;20189;-58
2023/05/28 10:59:49;;;;;;;4.68;2.15;;;19.10;54.40;;;;;;5029414;28;20192;-58
2023/05/28 11:02:26;;;;;;;3.28;2.38;;;19.10;54.40;;;;;;5025481;28;20326;-58
2023/05/28 11:04:59;;;;;;;3.13;2.20;;;19.10;54.50;;;;;;5031425;28;20292;-58
2023/05/28 11:07:33;;;;;;;3.58;2.10;;;19.10;54.50;;;;;;5034846;28;20962;-57
2023/05/28 11:10:05;;;;;;;2.17;1.90;;;19.10;54.50;;;;;;5030647;28;20192;-57
2023/05/28 11:12:38;;;;;;;2.97;1.90;;;19.10;54.50;;;;;;5028593;28;20212;-58
2023/05/28 11:15:10;;;;;;;2.72;2.08;;;19.00;54.40;;;;;;5033989;28;20602;-58
2023/05/28 11:17:43;;;;;;;3.60;2.25;;;19.00;54.50;;;;;;5029549;28;20199;-59
2023/05/28 11:20:24;;;;;;;3.50;2.10;;;19.00;54.50;;;;;;5033192;28;20196;-57
2023/05/28 11:22:55;;;;;;;2.60;2.08;;;19.00;54.50;;;;;;5026480;28;20243;-56
2023/05/28 11:25:27;;;;;;;1.95;1.73;;;19.00;54.50;;;;;;5026092;28;20204;-58
2023/05/28 11:27:59;;;;;;;3.30;2.03;;;19.00;54.50;;;;;;5030951;28;20220;-57
2023/05/28 11:30:29;;;;;;;2.67;2.25;;;19.00;54.50;;;;;;5033832;28;20196;-57
2023/05/28 11:33:05;;;;;;;2.65;1.80;;;18.90;54.50;;;;;;5025979;28;20216;-58
2023/05/28 11:35:36;;;;;;;2.70;1.85;;;18.90;54.50;;;;;;5033682;28;20648;-56
2023/05/28 11:38:07;;;;;;;4.07;1.90;;;18.90;54.50;;;;;;5033322;28;20207;-57
2023/05/28 11:40:37;;;;;;;3.22;2.20;;;18.90;54.50;;;;;;5020937;28;20185;-58
2023/05/28 11:43:08;;;;;;;3.63;2.20;;;18.90;54.50;;;;;;5014376;28;20189;-59
2023/05/28 11:45:42;;;;;;;2.00;1.80;;;18.90;54.50;;;;;;5014301;28;20193;-58
2023/05/28 11:48:17;;;;;;;2.58;2.10;;;18.90;54.60;;;;;;5011782;28;20197;-57
2023/05/28 11:50:48;;;;;;;2.17;1.77;;;18.90;54.60;;;;;;5014194;28;20204;-58
2023/05/28 11:53:18;;;;;;;2.20;1.80;;;18.80;54.50;;;;;;5014186;28;20220;-59
2023/05/28 11:55:49;;;;;;;2.67;1.90;;;18.80;54.60;;;;;;5014073;28;20208;-58
2023/05/28 11:58:21;;;;;;;2.35;1.90;;;18.80;54.60;;;;;;5014036;28;20193;-54
2023/05/28 12:00:59;;;;;;;2.60;1.80;;;18.80;54.60;;;;;;5014023;28;20215;-58
2023/05/28 12:03:32;;;;;;;1.92;1.70;;;18.80;54.60;;;;;;5013823;28;20189;-54
2023/05/28 12:06:02;;;;;;;2.90;1.85;;;18.70;54.60;;;;;;5013893;28;20973;-56
2023/05/28 12:08:33;;;;;;;3.17;1.90;;;18.70;54.60;;;;;;5011535;28;20192;-53
2023/05/28 12:11:04;;;;;;;2.65;2.03;;;18.70;54.60;;;;;;5013762;28;20209;-58
2023/05/28 12:13:36;;;;;;;2.92;1.70;;;18.70;54.60;;;;;;5011665;28;20689;-58
2023/05/28 12:16:12;;;;;;;2.00;1.52;;;18.70;54.70;;;;;;5013458;28;20571;-57
2023/05/28 12:18:47;;;;;;;3.40;1.75;;;18.70;54.60;;;;;;5012288;28;20192;-58
2023/05/28 12:21:20;;;;;;;1.70;1.60;;;18.70;54.60;;;;;;5011242;28;20227;-58
2023/05/28 12:23:51;;;;;;;3.30;2.05;;;18.70;54.70;;;;;;5013445;28;20272;-58
2023/05/28 12:26:21;;;;;;;2.85;1.73;;;18.70;54.60;;;;;;5013922;28;20212;-58
2023/05/28 12:28:52;;;;;;;2.00;1.67;;;18.70;54.60;;;;;;5013915;28;20197;-57
2023/05/28 12:31:30;;;;;;;2.28;2.00;;;18.60;54.60;;;;;;5013722;28;20213;-58
2023/05/28 12:34:03;;;;;;;2.03;1.77;;;18.60;54.60;;;;;;5013773;28;20228;-59
2023/05/28 12:36:34;;;;;;;2.42;1.80;;;18.60;54.70;;;;;;5013500;28;20255;-59
2023/05/28 12:39:05;;;;;;;2.53;1.58;;;18.60;54.60;;;;;;5013446;28;20200;-58
2023/05/28 12:41:36;;;;;;;2.17;1.77;;;18.60;54.70;;;;;;5012829;28;20248;-57
2023/05/28 12:44:06;;;;;;;2.72;1.92;;;18.50;54.60;;;;;;5013213;28;20197;-57
2023/05/28 12:46:37;;;;;;;3.83;2.10;;;18.50;54.70;;;;;;5013319;28;20201;-57
2023/05/28 12:49:10;;;;;;;2.33;1.70;;;18.50;54.70;;;;;;5013052;28;20193;-56
2023/05/28 12:51:40;;;;;;;1.52;1.42;;;18.50;54.70;;;;;;5013234;28;20246;-57
2023/05/28 12:54:11;;;;;;;2.63;1.77;;;18.50;54.70;;;;;;5013516;28;20259;-58
2023/05/28 12:56:42;;;;;;;2.58;1.85;;;18.50;54.70;;;;;;5013242;28;20197;-57
2023/05/28 12:59:22;;;;;;;1.77;1.60;;;18.50;54.70;;;;;;5013307;28;20197;-58
2023/05/28 13:01:54;;;;;;;2.63;2.00;;;18.40;54.70;;;;;;5013026;28;20256;-58
2023/05/28 13:04:27;;;;;;;2.60;1.40;;;18.40;54.70;;;;;;5013295;28;20208;-56
2023/05/28 13:06:58;;;;;;;4.00;1.88;;;18.40;54.70;;;;;;5013234;28;20193;-58
2023/05/28 13:09:28;;;;;;;2.67;1.80;;;18.40;55.10;;;;;;5012515;28;20251;-58
2023/05/28 13:11:59;;;;;;;1.70;1.58;;;18.40;54.70;;;;;;5012593;28;20221;-57